Time;durP1;ratioP1;P1;durP2;ratioP2;P2;SDS_P1;SDS_P2;PMS_P1;PMS_P2;Temp;Humidity;BMP_temperature;BMP_pressure;BME280_temperature;BME280_humidity;BME280_pressure;Samples;Min_cycle;Max_cycle;Signal;HPM_P1;HPM_P2
2022/02/07 00:02:00;;;;;;;8.60;1.93;;;7.00;53.00;;;;;;4984802;28;20202;-88
2022/02/07 00:04:33;;;;;;;9.63;2.73;;;7.00;54.10;;;;;;4987309;28;20639;-87
2022/02/07 00:07:00;;;;;;;10.27;2.23;;;6.90;57.00;;;;;;4986197;28;20198;-88
2022/02/07 00:09:26;;;;;;;11.43;2.13;;;6.90;59.90;;;;;;4987003;28;20178;-90
2022/02/07 00:11:52;;;;;;;11.30;2.10;;;6.80;64.90;;;;;;4988392;28;20179;-89
2022/02/07 00:14:19;;;;;;;8.63;2.60;;;6.70;72.90;;;;;;4988957;28;20179;-88
2022/02/07 00:16:45;;;;;;;7.30;2.03;;;6.50;75.40;;;;;;5005087;28;20195;-87
2022/02/07 00:19:17;;;;;;;17.23;2.90;;;6.60;74.70;;;;;;5001805;28;20238;-86
2022/02/07 00:21:45;;;;;;;10.30;2.33;;;6.60;70.50;;;;;;4999902;28;20171;-86
2022/02/07 00:24:11;;;;;;;8.33;1.97;;;6.70;65.50;;;;;;5002423;28;20271;-88
2022/02/07 00:26:37;;;;;;;11.17;2.00;;;6.70;62.70;;;;;;5036428;28;20179;-86
2022/02/07 00:29:03;;;;;;;5.67;1.57;;;6.70;58.00;;;;;;5019667;28;20143;-88
2022/02/07 00:31:42;;;;;;;10.37;2.33;;;6.70;56.40;;;;;;5001783;28;20186;-86
2022/02/07 00:34:18;;;;;;;9.53;2.13;;;6.80;56.50;;;;;;4986442;28;20175;-89
2022/02/07 00:36:50;;;;;;;8.20;1.83;;;6.70;55.70;;;;;;4985249;28;20210;-89
2022/02/07 00:39:26;;;;;;;9.60;1.80;;;6.60;55.70;;;;;;4983756;28;20182;-89
2022/02/07 00:41:59;;;;;;;11.50;2.17;;;6.70;55.20;;;;;;4982594;28;20179;-87
2022/02/07 00:44:25;;;;;;;7.87;1.80;;;6.70;56.40;;;;;;4999225;28;20151;-88
2022/02/07 00:47:06;;;;;;;7.47;2.20;;;6.70;54.10;;;;;;4981993;28;20583;-87
2022/02/07 00:49:31;;;;;;;11.50;1.87;;;6.70;54.00;;;;;;4981700;28;20206;-86
2022/02/07 00:51:57;;;;;;;5.07;1.77;;;6.60;54.50;;;;;;4983458;28;20175;-86
2022/02/07 00:54:23;;;;;;;9.23;2.27;;;6.60;55.30;;;;;;4982025;28;20202;-86
2022/02/07 00:56:49;;;;;;;9.30;2.30;;;6.60;56.50;;;;;;4982014;28;20678;-88
2022/02/07 00:59:15;;;;;;;9.90;2.00;;;6.50;57.30;;;;;;4981649;28;20186;-88
2022/02/07 01:01:41;;;;;;;7.83;2.33;;;6.50;56.40;;;;;;4981498;28;20636;-87
2022/02/07 01:04:06;;;;;;;8.13;2.03;;;6.60;57.10;;;;;;4998855;28;20179;-86
2022/02/07 01:06:32;;;;;;;16.17;2.60;;;6.50;58.30;;;;;;4983303;28;20190;-85
2022/02/07 01:09:12;;;;;;;10.93;2.53;;;6.40;57.00;;;;;;4981871;28;20179;-87
2022/02/07 01:17:32;;;;;;;8.23;1.87;;;6.50;57.00;;;;;;4999570;28;20214;-88
2022/02/07 01:20:04;;;;;;;7.73;1.63;;;6.50;55.20;;;;;;4999252;28;20170;-89
2022/02/07 01:54:44;;;;;;;7.77;1.90;;;6.20;48.40;;;;;;5005840;28;20189;-86
2022/02/07 01:57:12;;;;;;;8.70;2.07;;;6.20;47.30;;;;;;4992800;28;20288;-87
2022/02/07 01:59:38;;;;;;;6.03;1.83;;;6.20;49.30;;;;;;4983424;28;20182;-87
2022/02/07 02:02:05;;;;;;;9.13;1.80;;;6.20;49.20;;;;;;4981831;28;20179;-87
2022/02/07 02:04:32;;;;;;;8.27;2.33;;;6.20;50.70;;;;;;4998398;28;20203;-89
2022/02/07 02:06:58;;;;;;;11.73;2.03;;;6.20;52.10;;;;;;4981945;28;20172;-87
2022/02/07 02:09:30;;;;;;;7.80;2.30;;;6.10;53.60;;;;;;4981781;28;20171;-86
2022/02/07 02:11:55;;;;;;;7.37;1.83;;;6.10;54.50;;;;;;4980250;28;20182;-87
2022/02/07 02:14:43;;;;;;;7.53;2.00;;;6.10;54.20;;;;;;4981526;28;20242;-87
2022/02/07 02:17:40;;;;;;;4.90;1.50;;;6.10;55.20;;;;;;4980624;28;20221;-86
2022/02/07 02:46:50;;;;;;;9.00;2.17;;;6.10;59.20;;;;;;4979614;28;20188;-86
2022/02/07 02:49:16;;;;;;;11.53;2.30;;;6.00;60.70;;;;;;4998238;28;20170;-86
2022/02/07 02:51:42;;;;;;;8.83;2.43;;;6.10;61.60;;;;;;5002601;28;20202;-86
2022/02/07 02:54:07;;;;;;;7.50;2.27;;;6.20;60.00;;;;;;4995917;28;20287;-87
2022/02/07 02:56:37;;;;;;;10.23;1.97;;;6.20;59.90;;;;;;4993286;28;20203;-86
2022/02/07 02:59:05;;;;;;;11.23;1.97;;;6.20;60.20;;;;;;4995395;28;20202;-85
2022/02/07 03:01:38;;;;;;;8.57;2.03;;;6.20;61.80;;;;;;4988825;28;20175;-86
2022/02/07 03:04:17;;;;;;;9.43;2.10;;;6.10;62.30;;;;;;4991232;28;20171;-87
2022/02/07 03:06:48;;;;;;;9.50;2.00;;;6.20;61.50;;;;;;4988907;28;20186;-87
2022/02/07 03:09:15;;;;;;;12.27;3.00;;;6.20;61.40;;;;;;4982138;28;20226;-87
2022/02/07 03:11:44;;;;;;;8.03;2.40;;;6.10;61.50;;;;;;4981557;28;20250;-87
2022/02/07 03:14:20;;;;;;;11.80;2.33;;;6.20;61.40;;;;;;4980198;28;20252;-88
2022/02/07 03:16:50;;;;;;;12.03;2.00;;;6.20;62.40;;;;;;4982472;28;20249;-88
2022/02/07 03:19:18;;;;;;;7.10;1.93;;;6.20;60.90;;;;;;4984843;28;20183;-86
2022/02/07 03:21:45;;;;;;;8.73;1.67;;;6.20;60.90;;;;;;4999517;28;20213;-87
2022/02/07 03:24:14;;;;;;;10.30;2.00;;;6.20;62.30;;;;;;4986055;28;20663;-87
2022/02/07 03:26:43;;;;;;;9.37;2.50;;;6.20;61.00;;;;;;4980388;28;20198;-87
2022/02/07 03:29:09;;;;;;;11.20;2.17;;;6.20;61.40;;;;;;4981955;28;20642;-86
2022/02/07 03:31:36;;;;;;;8.77;2.00;;;6.10;60.80;;;;;;4996738;28;20159;-87
2022/02/07 03:34:08;;;;;;;12.63;2.33;;;6.00;63.60;;;;;;4998708;28;20171;-86
2022/02/07 03:36:35;;;;;;;10.77;2.57;;;6.10;64.20;;;;;;5003792;28;20211;-88
2022/02/07 03:39:26;;;;;;;11.03;2.23;;;6.10;63.80;;;;;;4991075;28;20183;-86
2022/02/07 03:42:05;;;;;;;9.93;2.30;;;6.00;62.80;;;;;;4986086;28;20190;-86
2022/02/07 03:44:42;;;;;;;13.30;2.53;;;5.90;64.70;;;;;;5001070;28;20171;-87
2022/02/07 03:47:09;;;;;;;8.23;2.33;;;5.90;65.50;;;;;;4984724;28;20226;-86
2022/02/07 03:49:35;;;;;;;12.03;2.50;;;5.90;66.50;;;;;;4985921;28;20170;-88
2022/02/07 03:52:01;;;;;;;8.83;2.40;;;5.90;66.90;;;;;;4983896;28;20181;-88
2022/02/07 03:54:27;;;;;;;11.23;2.33;;;5.90;65.30;;;;;;4984445;28;20199;-89
2022/02/07 03:56:52;;;;;;;11.57;2.27;;;5.90;65.30;;;;;;4986704;28;20198;-87
2022/02/07 03:59:19;;;;;;;13.00;2.57;;;5.90;65.50;;;;;;5000171;28;20635;-86
2022/02/07 04:01:45;;;;;;;7.63;2.10;;;5.90;66.10;;;;;;4982902;28;20709;-88
2022/02/07 04:04:11;;;;;;;7.27;2.30;;;6.00;65.80;;;;;;4982539;28;20643;-89
2022/02/07 04:06:36;;;;;;;11.97;2.63;;;6.00;65.10;;;;;;4983554;28;20186;-87
2022/02/07 04:09:06;;;;;;;8.53;2.63;;;5.90;65.00;;;;;;4983621;28;20155;-87
2022/02/07 04:11:42;;;;;;;6.60;2.17;;;5.90;62.80;;;;;;4984133;28;20264;-88
2022/02/07 04:14:08;;;;;;;10.17;2.80;;;5.80;64.40;;;;;;4983348;28;20198;-88
2022/02/07 04:16:37;;;;;;;7.97;2.10;;;5.80;65.60;;;;;;4983238;28;20211;-87
2022/02/07 04:19:14;;;;;;;7.20;2.00;;;5.70;64.40;;;;;;4983592;28;20673;-89
2022/02/07 04:21:43;;;;;;;9.17;2.80;;;5.70;65.50;;;;;;4983051;28;20179;-87
2022/02/07 04:24:10;;;;;;;8.67;2.20;;;5.70;65.90;;;;;;4983403;28;20201;-88
2022/02/07 04:26:35;;;;;;;9.27;2.70;;;5.70;65.70;;;;;;4983381;28;20179;-87
2022/02/07 04:29:01;;;;;;;6.80;2.17;;;5.60;65.00;;;;;;4982961;28;20520;-88
2022/02/07 04:31:27;;;;;;;11.83;2.20;;;5.60;65.60;;;;;;4984952;28;20619;-88
2022/02/07 04:33:52;;;;;;;12.50;2.43;;;5.60;65.20;;;;;;4982937;28;20707;-87
2022/02/07 04:36:18;;;;;;;7.60;1.90;;;5.60;64.10;;;;;;4982322;28;20306;-88
2022/02/07 04:38:44;;;;;;;10.57;2.63;;;5.60;62.80;;;;;;4982942;28;20182;-87
2022/02/07 04:41:10;;;;;;;6.40;2.03;;;5.60;62.00;;;;;;4983637;28;20187;-87
2022/02/07 04:43:39;;;;;;;7.93;2.10;;;5.60;63.10;;;;;;4986429;28;20171;-87
2022/02/07 05:05:19;;;;;;;11.23;2.50;;;5.50;68.70;;;;;;4990463;28;20270;-88
2022/02/07 05:16:04;;;;;;;9.57;2.40;;;5.40;71.60;;;;;;5009763;28;20210;-89
2022/02/07 05:18:31;;;;;;;10.23;2.07;;;5.30;71.90;;;;;;4983064;28;20171;-87
2022/02/07 05:20:57;;;;;;;12.60;2.37;;;5.30;72.00;;;;;;4982783;28;20186;-88
2022/02/07 05:23:23;;;;;;;11.77;2.33;;;5.30;71.50;;;;;;4982695;28;20226;-87
2022/02/07 05:25:49;;;;;;;10.63;2.13;;;5.30;71.90;;;;;;4982549;28;20182;-87
2022/02/07 05:28:15;;;;;;;9.87;2.50;;;5.30;71.10;;;;;;4981755;28;20241;-88
2022/02/07 05:30:41;;;;;;;11.53;3.77;;;5.30;71.10;;;;;;4982348;28;20214;-87
2022/02/07 05:33:07;;;;;;;13.40;2.70;;;5.30;70.90;;;;;;4981733;28;20179;-86
2022/02/07 05:35:33;;;;;;;10.00;2.77;;;5.30;70.00;;;;;;4981986;28;20207;-87
2022/02/07 05:37:59;;;;;;;7.00;2.50;;;5.20;70.80;;;;;;4983185;28;20175;-89
2022/02/07 05:40:36;;;;;;;7.50;2.10;;;5.20;72.00;;;;;;4982767;28;20193;-87
2022/02/07 05:43:02;;;;;;;7.00;2.43;;;5.20;72.90;;;;;;4987815;28;20167;-86
2022/02/07 05:45:28;;;;;;;9.10;2.37;;;5.20;72.70;;;;;;5001931;28;20175;-87
2022/02/07 05:47:54;;;;;;;8.17;2.50;;;5.30;72.10;;;;;;5002453;28;20190;-86
2022/02/07 05:50:20;;;;;;;6.50;2.10;;;5.30;72.00;;;;;;4989230;28;20175;-88
2022/02/07 05:52:46;;;;;;;10.90;2.03;;;5.30;72.00;;;;;;4985067;28;20612;-88
2022/02/07 05:55:15;;;;;;;9.20;2.33;;;5.40;71.40;;;;;;4988915;28;20159;-86
2022/02/07 05:57:41;;;;;;;10.23;2.00;;;5.40;71.30;;;;;;4988906;28;20277;-90
2022/02/07 06:00:09;;;;;;;8.63;2.33;;;5.40;69.50;;;;;;4999029;28;20626;-89
2022/02/07 06:02:36;;;;;;;9.40;2.20;;;5.40;70.90;;;;;;4982405;28;20278;-90
2022/02/07 06:05:04;;;;;;;6.27;2.20;;;5.30;71.80;;;;;;4994917;28;20159;-88
2022/02/07 06:07:30;;;;;;;10.40;2.63;;;5.30;72.60;;;;;;5001571;28;20195;-86
2022/02/07 06:09:58;;;;;;;8.63;2.10;;;5.40;71.70;;;;;;4999101;28;20163;-86
2022/02/07 06:12:24;;;;;;;9.33;2.80;;;5.40;71.80;;;;;;4995007;28;20182;-86
2022/02/07 06:14:51;;;;;;;15.93;3.10;;;5.40;70.90;;;;;;4983300;28;20182;-88
2022/02/07 06:17:17;;;;;;;13.27;2.53;;;5.50;71.10;;;;;;4982237;28;20695;-87
2022/02/07 06:19:46;;;;;;;6.33;2.57;;;5.50;71.80;;;;;;5005471;28;20179;-86
2022/02/07 06:22:12;;;;;;;7.27;2.47;;;5.60;70.60;;;;;;5000273;28;20178;-85
2022/02/07 06:24:37;;;;;;;12.53;3.43;;;5.60;71.30;;;;;;5001288;28;20214;-85
2022/02/07 06:27:03;;;;;;;9.93;2.50;;;5.60;70.30;;;;;;5000566;28;20185;-86
2022/02/07 06:29:29;;;;;;;11.87;2.53;;;5.60;69.30;;;;;;5002004;28;20237;-88
2022/02/07 06:31:57;;;;;;;8.77;2.00;;;5.60;69.70;;;;;;5000075;28;20171;-87
2022/02/07 06:34:24;;;;;;;10.63;2.17;;;5.60;70.20;;;;;;4997400;28;20176;-87
2022/02/07 06:36:50;;;;;;;11.27;2.90;;;5.60;72.50;;;;;;4993609;28;20252;-88
2022/02/07 06:39:17;;;;;;;9.40;2.87;;;5.50;72.00;;;;;;5003391;28;20183;-86
2022/02/07 06:41:43;;;;;;;7.93;2.40;;;5.50;72.70;;;;;;5001182;28;20290;-88
2022/02/07 06:44:09;;;;;;;15.30;3.67;;;5.40;73.10;;;;;;5001783;28;20185;-86
2022/02/07 06:46:35;;;;;;;11.87;2.73;;;5.50;73.10;;;;;;4998320;28;20218;-86
2022/02/07 06:49:02;;;;;;;10.30;2.33;;;5.50;72.30;;;;;;4987542;28;20179;-87
2022/02/07 06:51:28;;;;;;;12.57;2.80;;;5.50;71.30;;;;;;5019648;28;20183;-87
2022/02/07 06:53:56;;;;;;;8.63;2.30;;;5.50;72.60;;;;;;4983469;28;20193;-88
2022/02/07 06:56:25;;;;;;;16.33;3.30;;;5.50;73.10;;;;;;5001027;28;20211;-89
2022/02/07 06:58:53;;;;;;;10.97;2.73;;;5.40;73.20;;;;;;4990213;28;20163;-88
2022/02/07 07:01:21;;;;;;;9.70;2.27;;;5.50;73.70;;;;;;5005590;28;20210;-90
2022/02/07 07:03:47;;;;;;;13.90;2.43;;;5.70;74.00;;;;;;5002682;28;20232;-85
2022/02/07 07:06:14;;;;;;;9.00;2.83;;;5.50;73.20;;;;;;4983109;28;20278;-86
2022/02/07 07:08:46;;;;;;;9.50;2.37;;;5.50;73.10;;;;;;4984325;28;20179;-86
2022/02/07 07:11:16;;;;;;;8.40;2.00;;;5.50;72.40;;;;;;4988761;28;20183;-86
2022/02/07 07:13:49;;;;;;;12.43;2.40;;;5.50;73.00;;;;;;4988344;28;20306;-90
2022/02/07 07:18:54;;;;;;;8.70;2.30;;;5.50;72.10;;;;;;4966056;28;20612;-87
2022/02/07 07:21:20;;;;;;;12.17;3.33;;;5.50;71.60;;;;;;4963619;28;20167;-88
2022/02/07 07:23:51;;;;;;;17.30;2.90;;;5.40;71.80;;;;;;4979871;28;20195;-88
2022/02/07 07:26:23;;;;;;;9.63;2.67;;;5.40;72.70;;;;;;4979871;28;20202;-88
2022/02/07 07:28:53;;;;;;;9.13;2.60;;;5.50;72.50;;;;;;4977983;28;20307;-90
2022/02/07 07:31:20;;;;;;;11.20;2.30;;;5.40;71.90;;;;;;4979224;28;20635;-90
2022/02/07 07:33:51;;;;;;;7.47;2.30;;;5.40;72.20;;;;;;5006079;28;20213;-90
2022/02/07 07:36:17;;;;;;;12.40;2.73;;;5.50;72.70;;;;;;4991055;28;20214;-89
2022/02/07 07:38:44;;;;;;;11.70;2.73;;;5.40;72.80;;;;;;4982957;28;20682;-89
2022/02/07 07:41:11;;;;;;;6.60;2.30;;;5.50;72.20;;;;;;4981837;28;20189;-88
2022/02/07 07:43:39;;;;;;;8.60;2.20;;;5.40;70.90;;;;;;4979924;28;20175;-91
2022/02/07 07:46:11;;;;;;;8.87;2.10;;;5.40;70.60;;;;;;4980204;28;20628;-89
2022/02/07 07:48:40;;;;;;;15.10;2.50;;;5.50;71.50;;;;;;4996188;28;20643;-89
2022/02/07 07:51:22;;;;;;;9.33;2.80;;;5.40;71.20;;;;;;4986317;28;20194;-89
2022/02/07 07:54:12;;;;;;;11.27;2.73;;;5.40;71.40;;;;;;4986253;28;20204;-89
2022/02/07 08:02:10;;;;;;;7.30;1.63;;;5.40;71.60;;;;;;4996648;28;20241;-88
2022/02/07 08:04:39;;;;;;;10.67;2.30;;;5.50;71.80;;;;;;4979993;28;20190;-88
2022/02/07 08:12:15;;;;;;;10.00;2.30;;;5.50;70.90;;;;;;4998493;28;20187;-87
2022/02/07 08:14:41;;;;;;;9.37;2.47;;;5.50;71.40;;;;;;4982185;28;20274;-87
2022/02/07 08:17:07;;;;;;;10.43;2.33;;;5.50;71.70;;;;;;4981890;28;20242;-89
2022/02/07 08:19:34;;;;;;;7.43;2.37;;;5.60;71.70;;;;;;4980713;28;20182;-88
2022/02/07 08:22:01;;;;;;;9.33;2.83;;;5.90;59.70;;;;;;4984281;28;20269;-89
2022/02/07 08:24:29;;;;;;;7.43;2.80;;;5.70;49.50;;;;;;4986483;28;20686;-88
2022/02/07 08:26:57;;;;;;;7.60;2.07;;;5.80;47.30;;;;;;4987629;28;20249;-89
2022/02/07 08:29:23;;;;;;;9.47;2.57;;;5.90;44.40;;;;;;4986135;28;20425;-86
2022/02/07 08:31:49;;;;;;;8.73;2.03;;;5.80;43.40;;;;;;4990343;28;20680;-88
2022/02/07 08:34:15;;;;;;;9.57;2.43;;;5.80;44.40;;;;;;4997117;28;20563;-89
2022/02/07 08:36:41;;;;;;;10.67;3.13;;;5.80;42.10;;;;;;4992590;28;20214;-90
2022/02/07 08:39:08;;;;;;;7.50;2.47;;;5.90;43.30;;;;;;4988708;28;20179;-89
2022/02/07 08:41:43;;;;;;;6.67;2.37;;;5.90;41.70;;;;;;4987898;28;20193;-89
2022/02/07 08:44:10;;;;;;;9.83;2.47;;;5.90;39.70;;;;;;4989494;28;20182;-90
2022/02/07 08:46:35;;;;;;;8.50;2.27;;;5.80;41.90;;;;;;5005844;28;20255;-88
2022/02/07 08:49:03;;;;;;;11.50;3.23;;;5.90;40.90;;;;;;4988266;28;20181;-89
2022/02/07 08:51:32;;;;;;;11.33;2.50;;;6.00;39.30;;;;;;4989093;28;20635;-91
2022/02/07 08:54:03;;;;;;;7.20;2.30;;;5.90;35.10;;;;;;5004462;28;20275;-90
2022/02/07 08:56:40;;;;;;;10.03;2.70;;;6.00;35.10;;;;;;4977840;28;20742;-92
2022/02/07 08:59:06;;;;;;;6.67;2.17;;;6.00;36.40;;;;;;4987460;28;20237;-91
2022/02/07 09:02:03;;;;;;;12.43;3.87;;;6.00;32.10;;;;;;4985188;28;20246;-89
2022/02/07 09:04:50;;;;;;;7.17;2.43;;;6.10;32.60;;;;;;4986961;28;20187;-91
2022/02/07 09:07:25;;;;;;;12.33;2.90;;;6.10;27.50;;;;;;4999373;28;20194;-89
2022/02/07 09:10:14;;;;;;;6.57;2.10;;;6.00;29.30;;;;;;4996865;28;20188;-87
2022/02/07 09:12:43;;;;;;;8.77;2.27;;;6.00;26.30;;;;;;4988888;28;20183;-88
2022/02/07 09:17:56;;;;;;;10.87;2.70;;;6.30;25.50;;;;;;5006921;28;20167;-89
2022/02/07 09:20:22;;;;;;;9.67;2.67;;;6.30;19.70;;;;;;4983651;28;20171;-86
2022/02/07 09:22:55;;;;;;;7.20;2.53;;;6.40;17.30;;;;;;4986909;28;20315;-89
2022/02/07 09:25:22;;;;;;;8.53;2.40;;;6.50;13.00;;;;;;4983591;28;20654;-87
2022/02/07 09:27:48;;;;;;;10.43;3.30;;;6.40;12.60;;;;;;4984840;28;20380;-88
2022/02/07 09:30:17;;;;;;;8.43;2.37;;;6.40;12.60;;;;;;4966869;28;20190;-89
2022/02/07 09:32:43;;;;;;;8.20;3.10;;;6.50;11.80;;;;;;4983975;28;20198;-88
2022/02/07 09:35:09;;;;;;;9.07;3.23;;;6.60;11.00;;;;;;4985937;28;20186;-88
2022/02/07 09:37:35;;;;;;;9.60;2.97;;;6.50;8.40;;;;;;4986127;28;20183;-89
2022/02/07 09:40:00;;;;;;;8.03;2.37;;;6.60;10.90;;;;;;4984776;28;20194;-89
2022/02/07 09:42:29;;;;;;;8.33;2.93;;;6.60;4.30;;;;;;4985411;28;20580;-88
2022/02/07 09:45:06;;;;;;;10.70;3.47;;;6.50;9.10;;;;;;4988502;28;20233;-89
2022/02/07 09:47:33;;;;;;;12.37;3.97;;;6.50;10.20;;;;;;4986220;28;20185;-88
2022/02/07 09:49:58;;;;;;;9.77;2.83;;;6.70;10.90;;;;;;4983029;28;20183;-88
2022/02/07 09:52:24;;;;;;;11.63;2.90;;;6.70;5.30;;;;;;4978495;28;20203;-86
2022/02/07 09:54:50;;;;;;;10.87;2.90;;;6.80;4.90;;;;;;4981157;28;20239;-88
2022/02/07 09:57:19;;;;;;;7.63;2.63;;;6.90;1.00;;;;;;4982668;28;20196;-87
2022/02/07 09:59:46;;;;;;;11.87;2.90;;;6.90;4.40;;;;;;4997113;28;20219;-89
2022/02/07 10:02:40;;;;;;;8.63;3.00;;;6.80;4.00;;;;;;4972350;28;20195;-89
2022/02/07 10:05:12;;;;;;;8.40;2.70;;;6.80;6.90;;;;;;4976386;28;20742;-91
2022/02/07 10:08:04;;;;;;;8.07;2.80;;;6.90;3.60;;;;;;4987533;28;20179;-91
2022/02/07 10:10:46;;;;;;;11.93;3.10;;;6.90;5.20;;;;;;4990999;28;20178;-89
2022/02/07 10:16:03;;;;;;;8.63;2.03;;;7.00;1.20;;;;;;4991953;28;20190;-90
2022/02/07 10:43:10;;;;;;;13.13;2.50;;;7.40;1.00;;;;;;5022562;28;20159;-90
2022/02/07 10:46:00;;;;;;;7.00;2.50;;;7.60;1.00;;;;;;5004446;28;20177;-89
2022/02/07 10:48:37;;;;;;;8.07;2.40;;;7.80;1.00;;;;;;5002256;28;20579;-90
2022/02/07 10:51:14;;;;;;;9.50;2.57;;;7.80;1.00;;;;;;4983868;28;20221;-88
2022/02/07 10:53:43;;;;;;;8.07;2.33;;;7.80;1.00;;;;;;4985681;28;20201;-88
2022/02/07 10:56:09;;;;;;;8.17;2.60;;;7.90;1.00;;;;;;4987407;28;20199;-87
2022/02/07 10:58:40;;;;;;;9.40;2.63;;;7.90;1.00;;;;;;5006961;28;20166;-89
2022/02/07 11:01:18;;;;;;;7.53;2.63;;;7.90;1.00;;;;;;4974108;28;20225;-89
2022/02/07 11:04:11;;;;;;;8.80;2.33;;;7.90;1.00;;;;;;4984557;28;20576;-90
2022/02/07 11:06:34;;;;;;;10.93;2.77;;;8.00;1.00;;;;;;4981853;28;20218;-91
2022/02/07 11:24:21;;;;;;;5.80;2.00;;;7.90;1.00;;;;;;5004361;28;20194;-89
2022/02/07 11:26:50;;;;;;;8.67;2.17;;;7.90;1.00;;;;;;4986713;28;20178;-90
2022/02/07 11:29:46;;;;;;;11.77;2.60;;;7.90;1.00;;;;;;4989773;28;20178;-89
2022/02/07 11:32:43;;;;;;;11.50;2.40;;;7.90;1.00;;;;;;5004569;28;20167;-89
2022/02/07 11:35:17;;;;;;;10.50;2.47;;;8.00;1.00;;;;;;4981987;28;20190;-88
2022/02/07 11:38:12;;;;;;;8.20;2.20;;;8.00;1.00;;;;;;4999875;28;20217;-87
2022/02/07 11:41:02;;;;;;;8.37;2.63;;;8.00;1.00;;;;;;4987863;28;20194;-88
2022/02/07 11:43:38;;;;;;;9.47;2.17;;;8.10;1.00;;;;;;4999031;28;20183;-88
2022/02/07 11:46:09;;;;;;;8.37;2.80;;;8.10;1.00;;;;;;4984198;28;20261;-89
2022/02/07 11:48:43;;;;;;;5.70;2.00;;;8.10;1.00;;;;;;4983737;28;20185;-89
2022/02/07 11:51:17;;;;;;;7.80;2.37;;;8.00;1.00;;;;;;4986625;28;20186;-87
2022/02/07 11:53:51;;;;;;;5.80;2.43;;;8.10;1.00;;;;;;4984823;28;20190;-87
2022/02/07 11:56:55;;;;;;;9.53;2.63;;;8.40;1.00;;;;;;4988295;28;20202;-87
2022/02/07 11:59:44;;;;;;;11.43;2.33;;;8.30;1.00;;;;;;4990399;28;20534;-88
2022/02/07 12:02:17;;;;;;;7.80;2.43;;;8.40;1.00;;;;;;5007082;28;20186;-86
2022/02/07 12:04:48;;;;;;;7.67;2.47;;;8.40;1.00;;;;;;4996963;28;20158;-86
2022/02/07 12:07:24;;;;;;;9.13;2.47;;;8.60;1.00;;;;;;5005429;28;20186;-88
2022/02/07 12:12:43;;;;;;;10.10;2.50;;;8.60;1.00;;;;;;5003012;28;20251;-87
2022/02/07 12:15:14;;;;;;;9.03;2.77;;;8.70;1.00;;;;;;4993574;28;20189;-87
2022/02/07 12:17:41;;;;;;;13.30;3.03;;;8.70;1.00;;;;;;4992095;28;20203;-87
2022/02/07 12:20:08;;;;;;;8.87;2.43;;;8.80;1.00;;;;;;4986221;28;20171;-88
2022/02/07 12:22:54;;;;;;;8.23;2.10;;;8.80;1.00;;;;;;4984855;28;20191;-88
2022/02/07 12:25:30;;;;;;;8.30;2.00;;;8.90;1.00;;;;;;4986423;28;20171;-89
2022/02/07 12:28:01;;;;;;;9.50;2.63;;;8.80;1.00;;;;;;4985215;28;20273;-86
2022/02/07 12:30:44;;;;;;;6.00;2.63;;;8.80;1.00;;;;;;4984589;28;20261;-90
2022/02/07 12:33:11;;;;;;;6.13;1.90;;;8.70;1.00;;;;;;4986133;28;20164;-88
2022/02/07 12:35:37;;;;;;;9.10;2.47;;;8.70;1.00;;;;;;4986501;28;20202;-88
2022/02/07 12:38:03;;;;;;;6.87;2.40;;;8.70;1.00;;;;;;4986293;28;20261;-88
2022/02/07 12:40:30;;;;;;;7.83;2.50;;;8.70;1.00;;;;;;4987159;28;20194;-88
2022/02/07 12:42:56;;;;;;;9.00;2.23;;;8.70;1.00;;;;;;4989352;28;20185;-90
2022/02/07 12:45:29;;;;;;;8.80;2.20;;;8.70;1.00;;;;;;4987516;28;20195;-90
2022/02/07 12:48:08;;;;;;;9.20;2.93;;;8.70;1.00;;;;;;4985167;28;20635;-90
2022/02/07 12:50:35;;;;;;;8.37;2.57;;;8.70;1.00;;;;;;4987564;28;20170;-88
2022/02/07 12:53:01;;;;;;;9.60;2.00;;;8.80;1.00;;;;;;4988987;28;20194;-88
2022/02/07 12:55:27;;;;;;;18.53;7.50;;;8.80;1.00;;;;;;4997051;28;20210;-91
2022/02/07 12:57:52;;;;;;;7.97;2.00;;;8.90;1.00;;;;;;4997837;28;20194;-89
2022/02/07 13:00:21;;;;;;;7.90;2.63;;;9.00;1.00;;;;;;4993987;28;20616;-90
2022/02/07 13:02:50;;;;;;;5.47;1.63;;;8.80;1.00;;;;;;4991082;28;20259;-89
2022/02/07 13:05:20;;;;;;;9.17;2.57;;;8.80;1.00;;;;;;4992069;28;20170;-89
2022/02/07 13:07:50;;;;;;;8.77;2.03;;;8.80;1.00;;;;;;5005177;28;20194;-96
2022/02/07 13:10:32;;;;;;;6.80;1.80;;;8.80;1.00;;;;;;5023384;28;20181;-92
2022/02/07 13:15:35;;;;;;;10.73;2.20;;;9.20;1.00;;;;;;5023081;28;20234;-91
2022/02/07 13:18:10;;;;;;;7.87;2.60;;;9.30;1.00;;;;;;5005309;28;20254;-92
2022/02/07 13:20:37;;;;;;;8.53;2.30;;;9.20;1.00;;;;;;5008922;28;20210;-91
2022/02/07 13:23:12;;;;;;;5.40;1.93;;;9.20;1.00;;;;;;4985826;28;20207;-91
2022/02/07 13:25:43;;;;;;;6.23;2.17;;;9.20;1.00;;;;;;4986929;28;20171;-88
2022/02/07 13:28:18;;;;;;;7.40;2.10;;;9.10;1.00;;;;;;4982095;28;20179;-87
2022/02/07 13:30:54;;;;;;;8.30;2.50;;;9.10;1.00;;;;;;4982025;28;20182;-92
2022/02/07 13:33:22;;;;;;;6.57;2.00;;;9.20;1.00;;;;;;5001675;28;20178;-89
2022/02/07 13:35:51;;;;;;;11.50;2.70;;;9.10;1.00;;;;;;4998479;28;20197;-88
2022/02/07 13:38:19;;;;;;;7.33;2.57;;;9.10;1.00;;;;;;4971223;28;20214;-90
2022/02/07 13:40:50;;;;;;;6.43;2.00;;;9.20;1.00;;;;;;4993274;28;20175;-89
2022/02/07 13:43:27;;;;;;;6.77;1.80;;;9.20;1.00;;;;;;4989892;28;20183;-90
2022/02/07 13:45:55;;;;;;;6.03;1.70;;;9.00;1.00;;;;;;4989075;28;20182;-90
2022/02/07 13:48:25;;;;;;;7.47;1.87;;;9.20;1.00;;;;;;4986196;28;20171;-88
2022/02/07 13:50:54;;;;;;;5.37;1.67;;;9.20;1.00;;;;;;4985802;28;20272;-88
2022/02/07 13:53:22;;;;;;;5.03;1.30;;;9.00;1.00;;;;;;4994115;28;20201;-87
2022/02/07 13:58:47;;;;;;;8.80;2.03;;;8.90;1.00;;;;;;5064913;28;20216;-87
2022/02/07 14:01:14;;;;;;;7.13;1.87;;;9.20;1.00;;;;;;5059894;28;20233;-88
2022/02/07 14:03:48;;;;;;;5.23;1.83;;;9.00;1.00;;;;;;5059596;28;20180;-91
2022/02/07 14:06:19;;;;;;;4.97;1.90;;;9.20;1.00;;;;;;5060995;28;20184;-91
2022/02/07 14:08:54;;;;;;;7.30;2.23;;;9.30;1.00;;;;;;5035632;28;20181;-89
2022/02/07 14:11:26;;;;;;;7.07;2.50;;;9.40;1.00;;;;;;5067793;28;20168;-91
2022/02/07 14:13:54;;;;;;;7.13;2.37;;;9.30;1.00;;;;;;5067508;28;20177;-89
2022/02/07 14:16:23;;;;;;;7.53;2.23;;;9.40;1.00;;;;;;5074797;28;20235;-89
2022/02/07 14:18:51;;;;;;;4.60;1.80;;;9.30;1.00;;;;;;5076861;28;20165;-88
2022/02/07 14:21:22;;;;;;;8.47;2.57;;;9.20;1.00;;;;;;5074090;28;20169;-90
2022/02/07 14:23:52;;;;;;;6.30;2.30;;;9.30;1.00;;;;;;5048766;28;20200;-89
2022/02/07 14:26:20;;;;;;;5.97;1.50;;;9.30;1.00;;;;;;5065730;28;20178;-93
2022/02/07 14:28:52;;;;;;;5.27;1.50;;;9.30;1.00;;;;;;5051699;28;20212;-90
2022/02/07 14:31:21;;;;;;;7.13;2.10;;;9.30;1.00;;;;;;5062148;28;20169;-92
2022/02/07 14:33:48;;;;;;;6.60;1.70;;;9.30;1.00;;;;;;5061356;28;20176;-90
2022/02/07 14:36:16;;;;;;;7.67;1.80;;;9.30;1.00;;;;;;5059135;28;20226;-90
2022/02/07 14:38:41;;;;;;;7.63;1.87;;;9.20;1.00;;;;;;5062684;28;20269;-89
2022/02/07 14:41:11;;;;;;;6.83;1.80;;;9.30;1.00;;;;;;5059143;28;20220;-92
2022/02/07 14:43:38;;;;;;;7.60;2.03;;;9.30;1.00;;;;;;5060396;28;20188;-90
2022/02/07 14:46:11;;;;;;;6.30;1.87;;;9.40;1.00;;;;;;5042356;28;20192;-89
2022/02/07 14:48:40;;;;;;;8.83;2.50;;;9.60;1.00;;;;;;5058900;28;20268;-91
2022/02/07 14:51:09;;;;;;;8.10;2.17;;;9.70;1.00;;;;;;5059283;28;20188;-90
2022/02/07 14:53:38;;;;;;;10.23;2.30;;;9.70;1.00;;;;;;5058069;28;20188;-92
2022/02/07 14:56:05;;;;;;;4.70;2.00;;;9.70;1.00;;;;;;5060894;28;20204;-92
2022/02/07 14:58:34;;;;;;;6.77;2.07;;;9.60;1.00;;;;;;5060532;28;20184;-92
2022/02/07 15:01:15;;;;;;;9.13;2.37;;;9.70;1.00;;;;;;5060589;28;20258;-90
2022/02/07 15:03:40;;;;;;;7.53;2.37;;;9.40;1.00;;;;;;5060381;28;20192;-88
2022/02/07 15:06:06;;;;;;;7.20;1.97;;;9.40;1.00;;;;;;5060681;28;20201;-92
2022/02/07 15:08:32;;;;;;;9.33;2.50;;;9.50;1.00;;;;;;5058038;28;20188;-91
2022/02/07 15:11:00;;;;;;;8.93;2.60;;;9.70;1.00;;;;;;5047188;28;20172;-91
2022/02/07 15:13:32;;;;;;;6.43;2.10;;;9.50;1.00;;;;;;5056777;28;20176;-94
2022/02/07 15:15:58;;;;;;;10.90;2.23;;;9.60;1.00;;;;;;5069350;28;20220;-90
2022/02/07 15:18:32;;;;;;;7.83;2.10;;;10.00;1.00;;;;;;5081025;28;20252;-89
2022/02/07 15:21:01;;;;;;;6.93;2.30;;;10.00;1.00;;;;;;5049384;28;20248;-87
2022/02/07 15:23:28;;;;;;;8.97;2.40;;;9.80;1.00;;;;;;5079172;28;20292;-89
2022/02/07 15:25:57;;;;;;;8.13;2.53;;;9.90;1.00;;;;;;5093489;28;20156;-89
2022/02/07 15:28:22;;;;;;;7.27;2.27;;;10.10;1.00;;;;;;5095389;28;20155;-86
2022/02/07 15:30:49;;;;;;;6.30;2.10;;;10.60;1.00;;;;;;5049103;28;20201;-87
2022/02/07 15:33:33;;;;;;;8.40;2.67;;;10.70;1.00;;;;;;5070631;28;20161;-89
2022/02/07 15:35:59;;;;;;;7.67;2.63;;;10.60;1.00;;;;;;5066066;28;20205;-90
2022/02/07 15:38:27;;;;;;;7.60;2.07;;;10.60;1.00;;;;;;5057273;28;20303;-88
2022/02/07 15:40:54;;;;;;;6.17;1.67;;;10.50;99.90;;;;;;5048996;28;20181;-91
2022/02/07 15:43:20;;;;;;;5.87;1.70;;;10.20;99.90;;;;;;5051199;28;20170;-89
2022/02/07 15:45:47;;;;;;;6.40;1.80;;;10.20;99.90;;;;;;5052812;28;20157;-89
2022/02/07 15:48:13;;;;;;;5.80;1.80;;;10.10;99.90;;;;;;5051814;28;20177;-89
2022/02/07 15:50:39;;;;;;;5.57;2.00;;;10.20;1.00;;;;;;5060429;28;20235;-90
2022/02/07 15:53:05;;;;;;;8.03;2.37;;;10.00;1.00;;;;;;5043236;28;20181;-91